Time;durP1;ratioP1;P1;durP2;ratioP2;P2;SDS_P1;SDS_P2;PMS_P1;PMS_P2;Temp;Humidity;BMP_temperature;BMP_pressure;BME280_temperature;BME280_humidity;BME280_pressure;Samples;Min_cycle;Max_cycle;Signal;HPM_P1;HPM_P2
2022/06/28 00:02:01;;;;;;;6.30;4.13;;;;;;;21.15;49.14;94153.75;5059183;28;20029;-77
2022/06/28 00:04:27;;;;;;;3.88;3.42;;;;;;;20.75;48.93;94091.53;5056818;28;20040;-77
2022/06/28 00:06:52;;;;;;;4.22;3.83;;;;;;;21.13;49.01;94147.16;5058094;28;20050;-78
2022/06/28 00:09:18;;;;;;;4.43;3.75;;;;;;;21.22;48.99;94164.63;5061424;28;20041;-77
2022/06/28 00:11:44;;;;;;;4.80;3.92;;;;;;;20.97;48.82;94123.06;5065882;28;20036;-77
2022/06/28 00:16:57;;;;;;;6.00;3.70;;;;;;;21.03;49.48;94145.91;5059271;28;20106;-77
2022/06/28 00:19:22;;;;;;;4.45;3.70;;;;;;;21.09;49.24;94155.25;5057694;28;20136;-77
2022/06/28 00:21:48;;;;;;;5.10;3.50;;;;;;;21.20;49.28;94166.94;5059082;28;20222;-78
2022/06/28 00:24:15;;;;;;;5.43;4.10;;;;;;;21.05;49.23;94151.72;5057979;28;20033;-77
2022/06/28 00:26:41;;;;;;;3.50;3.17;;;;;;;21.01;49.31;94157.13;5059103;28;20085;-77
2022/06/28 00:29:07;;;;;;;4.65;3.42;;;;;;;20.99;49.56;94167.50;5056013;28;20233;-77
2022/06/28 00:31:32;;;;;;;6.25;4.00;;;;;;;20.83;49.89;94144.50;5059309;28;20048;-77
2022/06/28 00:33:58;;;;;;;3.75;3.45;;;;;;;20.91;49.91;94167.81;5058879;28;20033;-77
2022/06/28 00:36:23;;;;;;;4.57;3.72;;;;;;;20.73;49.93;94137.06;5058245;28;20028;-77
2022/06/28 00:38:49;;;;;;;7.78;4.13;;;;;;;20.78;50.24;94156.41;5060747;28;20393;-77
2022/06/28 00:41:14;;;;;;;6.25;4.20;;;;;;;20.86;50.02;94160.78;5055571;28;20050;-77
2022/06/28 00:43:40;;;;;;;5.00;3.55;;;;;;;20.88;49.98;94158.50;5057978;28;20017;-77
2022/06/28 00:46:07;;;;;;;4.97;4.47;;;;;;;20.88;49.88;94160.41;5061010;28;20029;-77
2022/06/28 00:48:33;;;;;;;7.47;4.55;;;;;;;20.81;50.10;94163.03;5063108;28;20048;-77
2022/06/28 00:50:58;;;;;;;4.80;3.72;;;;;;;20.59;50.41;94149.25;5062663;28;20122;-77
2022/06/28 00:53:24;;;;;;;4.78;3.95;;;;;;;20.68;50.84;94167.13;5063476;28;20040;-76
2022/06/28 00:55:50;;;;;;;4.20;3.80;;;;;;;20.41;50.86;94129.34;5057548;28;20021;-77
2022/06/28 00:58:16;;;;;;;5.22;3.88;;;;;;;20.55;51.18;94153.06;5061386;28;20099;-77
2022/06/28 01:00:45;;;;;;;6.20;3.95;;;;;;;20.48;51.25;94161.09;5059182;28;20041;-76
2022/06/28 01:03:28;;;;;;;4.47;4.07;;;;;;;20.53;51.17;94166.94;5060474;28;20281;-77
2022/06/28 01:05:54;;;;;;;6.20;3.75;;;;;;;20.48;51.37;94167.25;5062132;28;20365;-77
2022/06/28 01:08:20;;;;;;;5.18;4.13;;;;;;;20.45;51.37;94153.72;5060108;28;20036;-77
2022/06/28 01:10:46;;;;;;;5.07;4.30;;;;;;;20.47;51.30;94165.72;5060246;28;20063;-77
2022/06/28 01:13:13;;;;;;;4.60;3.88;;;;;;;20.40;51.34;94162.13;5058687;28;20531;-77
2022/06/28 01:15:41;;;;;;;5.47;4.20;;;;;;;20.29;51.34;94140.38;5057594;28;20175;-77
2022/06/28 01:18:08;;;;;;;4.70;4.25;;;;;;;20.42;51.44;94163.34;5057744;28;20578;-76
2022/06/28 01:20:34;;;;;;;4.45;3.92;;;;;;;20.39;51.66;94161.34;5058127;28;20068;-77
2022/06/28 01:23:00;;;;;;;4.47;4.05;;;;;;;20.25;51.68;94144.97;5059180;28;20048;-77
2022/06/28 01:25:26;;;;;;;7.75;4.28;;;;;;;20.34;51.67;94147.38;5058079;28;20021;-77
2022/06/28 01:27:53;;;;;;;5.30;4.15;;;;;;;20.45;51.70;94159.13;5059524;28;20036;-77
2022/06/28 01:30:19;;;;;;;4.20;3.80;;;;;;;20.25;51.91;94144.97;5059515;28;22505;-78
2022/06/28 01:32:45;;;;;;;4.90;4.43;;;;;;;20.20;51.83;94131.78;5060227;28;20462;-77
2022/06/28 01:35:10;;;;;;;4.90;4.13;;;;;;;19.84;52.33;94102.72;5059958;28;20434;-78
2022/06/28 01:37:36;;;;;;;5.60;4.90;;;;;;;20.11;52.47;94133.94;5060811;28;20025;-77
2022/06/28 01:40:04;;;;;;;8.80;4.80;;;;;;;20.34;51.95;94153.56;5057442;28;20072;-77
2022/06/28 01:42:30;;;;;;;4.93;4.30;;;;;;;20.34;52.06;94153.56;5059898;28;20028;-76
2022/06/28 01:44:57;;;;;;;6.07;4.32;;;;;;;20.34;51.84;94158.97;5060655;28;20039;-77
2022/06/28 01:47:27;;;;;;;7.00;4.38;;;;;;;20.34;51.95;94155.50;5060901;28;20045;-77
2022/06/28 01:49:53;;;;;;;4.45;4.05;;;;;;;20.32;51.83;94152.38;5063497;28;20082;-77
2022/06/28 01:52:19;;;;;;;7.03;3.90;;;;;;;20.15;52.13;94142.88;5060778;28;20070;-77
2022/06/28 01:54:44;;;;;;;6.95;4.00;;;;;;;20.13;51.90;94131.66;5058171;28;20052;-77
2022/06/28 01:57:10;;;;;;;4.10;3.80;;;;;;;20.02;52.28;94119.94;5058842;28;20418;-76
2022/06/28 01:59:39;;;;;;;4.10;3.63;;;;;;;19.98;52.24;94136.09;5058649;28;20090;-76
2022/06/28 02:02:06;;;;;;;6.18;3.60;;;;;;;20.08;52.63;94146.25;5064131;28;20056;-77
2022/06/28 02:04:31;;;;;;;4.07;3.40;;;;;;;20.04;52.53;94147.38;5056352;28;20080;-76
2022/06/28 02:06:58;;;;;;;5.07;4.57;;;;;;;19.86;52.67;94130.13;5058885;28;20124;-77
2022/06/28 02:09:24;;;;;;;5.10;4.10;;;;;;;19.92;52.96;94147.56;5057546;28;20546;-77
2022/06/28 02:11:51;;;;;;;4.20;3.60;;;;;;;19.96;52.95;94142.97;5058234;28;20036;-77
2022/06/28 02:14:17;;;;;;;6.22;4.30;;;;;;;19.86;53.40;94135.50;5057846;28;20425;-77
2022/06/28 02:16:43;;;;;;;4.82;3.72;;;;;;;19.71;53.23;94126.44;5057677;28;20068;-77
2022/06/28 02:19:08;;;;;;;4.97;4.20;;;;;;;19.78;53.12;94140.03;5057783;28;20507;-77
2022/06/28 02:21:38;;;;;;;5.80;4.00;;;;;;;19.86;53.18;94154.41;5058146;28;20043;-76
2022/06/28 02:24:04;;;;;;;4.47;3.33;;;;;;;19.57;53.21;94124.31;5057657;28;20029;-76
2022/06/28 02:26:32;;;;;;;5.25;3.55;;;;;;;19.54;53.43;94135.81;5056914;28;20029;-77
2022/06/28 02:29:00;;;;;;;3.50;3.20;;;;;;;19.69;53.50;94147.63;5058346;28;20024;-76
2022/06/28 02:31:27;;;;;;;7.28;4.55;;;;;;;19.67;53.45;94147.97;5057655;28;20017;-76
2022/06/28 02:33:52;;;;;;;4.40;3.60;;;;;;;19.66;53.64;94159.13;5055952;28;20056;-77
2022/06/28 02:41:50;;;;;;;7.60;3.80;;;;;;;19.56;54.10;94167.81;5058853;28;20044;-76
2022/06/28 02:44:16;;;;;;;4.63;4.15;;;;;;;19.44;54.04;94155.28;5056260;28;20067;-76
2022/06/28 02:46:41;;;;;;;6.28;3.67;;;;;;;19.35;54.17;94148.56;5063226;28;20035;-76
2022/06/28 02:49:07;;;;;;;3.72;3.40;;;;;;;19.49;53.85;94163.09;5060642;28;20034;-76
2022/06/28 02:51:32;;;;;;;4.63;3.50;;;;;;;19.40;53.72;94154.44;5061904;28;20051;-76
2022/06/28 02:53:58;;;;;;;3.90;3.58;;;;;;;19.35;53.98;94152.06;5058231;28;20119;-76
2022/06/28 02:56:24;;;;;;;5.55;4.00;;;;;;;19.15;54.15;94110.09;5053775;28;20048;-76
2022/06/28 02:58:49;;;;;;;4.90;4.40;;;;;;;19.44;53.93;94147.19;5038692;28;20044;-76
2022/06/28 03:01:15;;;;;;;3.80;3.40;;;;;;;19.48;53.93;94150.75;5057330;28;20417;-76
2022/06/28 03:03:41;;;;;;;4.70;3.72;;;;;;;19.41;53.46;94123.63;5047707;28;20028;-77
2022/06/28 03:06:06;;;;;;;3.88;3.55;;;;;;;19.43;53.43;94132.13;5044730;28;20037;-76
2022/06/28 03:08:32;;;;;;;4.07;3.60;;;;;;;19.56;53.43;94141.63;5059642;28;20448;-77
2022/06/28 03:10:58;;;;;;;4.90;3.17;;;;;;;19.61;53.12;94145.94;5055774;28;20389;-77
2022/06/28 03:13:23;;;;;;;4.18;3.55;;;;;;;19.48;53.60;94139.97;5057088;28;20026;-77
2022/06/28 03:15:49;;;;;;;5.18;3.22;;;;;;;19.38;53.34;94124.34;5054418;28;20037;-77
2022/06/28 03:18:15;;;;;;;4.10;3.38;;;;;;;19.44;53.87;94147.19;5055036;28;20100;-77
2022/06/28 03:20:40;;;;;;;5.93;3.60;;;;;;;19.28;54.07;94112.25;5056701;28;20127;-78
2022/06/28 03:23:06;;;;;;;4.68;3.78;;;;;;;19.17;54.56;94108.59;5039854;28;20115;-77
2022/06/28 03:25:31;;;;;;;5.32;3.80;;;;;;;19.41;54.56;94150.59;5057454;28;20032;-77
2022/06/28 03:27:57;;;;;;;4.75;4.03;;;;;;;19.40;54.75;94124.78;5056136;28;20032;-77
2022/06/28 03:30:23;;;;;;;5.10;4.38;;;;;;;19.56;55.07;94136.22;5057728;28;20040;-76
2022/06/28 03:32:48;;;;;;;6.43;4.28;;;;;;;19.43;55.03;94109.78;5056839;28;20029;-77
2022/06/28 03:35:14;;;;;;;5.53;4.55;;;;;;;19.62;55.05;94150.97;5056976;28;20044;-77
2022/06/28 03:37:39;;;;;;;7.35;4.90;;;;;;;19.76;54.81;94139.59;5057712;28;20051;-78
2022/06/28 03:40:05;;;;;;;5.50;4.70;;;;;;;19.58;55.17;94111.59;5056521;28;20488;-76
2022/06/28 03:42:31;;;;;;;7.25;5.68;;;;;;;19.59;55.55;94113.94;5057204;28;20495;-77
2022/06/28 03:44:56;;;;;;;6.75;5.30;;;;;;;19.82;55.42;94148.97;5060453;28;20033;-76
2022/06/28 03:47:22;;;;;;;7.28;5.82;;;;;;;19.70;56.14;94151.88;5061779;28;20100;-77
2022/06/28 03:49:50;;;;;;;8.07;6.28;;;;;;;19.75;56.24;94160.41;5062428;28;20025;-76
2022/06/28 03:52:16;;;;;;;8.95;6.45;;;;;;;19.72;56.44;94161.16;5060154;28;20078;-76
2022/06/28 03:54:41;;;;;;;12.88;6.85;;;;;;;19.79;55.93;94159.72;5057657;28;20637;-77
2022/06/28 03:57:07;;;;;;;9.60;7.18;;;;;;;19.64;55.63;94110.94;5056871;28;20041;-77
2022/06/28 03:59:33;;;;;;;9.70;7.78;;;;;;;20.03;55.69;94170.09;5058009;28;20343;-77
2022/06/28 04:01:58;;;;;;;11.93;7.60;;;;;;;20.04;55.70;94177.06;5056931;28;20035;-77
2022/06/28 04:04:24;;;;;;;9.93;7.50;;;;;;;19.96;56.14;94169.97;5057150;28;20055;-77
2022/06/28 04:06:49;;;;;;;8.80;7.65;;;;;;;20.03;55.60;94175.50;5055964;28;20376;-77
2022/06/28 04:09:16;;;;;;;8.88;7.55;;;;;;;19.99;55.78;94170.06;5056294;28;20616;-76
2022/06/28 04:11:42;;;;;;;9.57;8.55;;;;;;;20.14;56.17;94181.84;5055251;28;20033;-77
2022/06/28 04:14:08;;;;;;;13.20;9.52;;;;;;;19.84;56.34;94167.50;5058432;28;20036;-78
2022/06/28 04:16:33;;;;;;;15.25;8.43;;;;;;;19.72;57.40;94188.13;5058718;28;20100;-77
2022/06/28 04:18:59;;;;;;;14.23;8.85;;;;;;;19.64;57.70;94186.47;5038072;28;20615;-76
2022/06/28 04:21:24;;;;;;;11.90;8.13;;;;;;;19.62;57.51;94193.34;5048653;28;20028;-77
2022/06/28 04:23:50;;;;;;;13.75;8.68;;;;;;;19.80;57.23;94191.72;5044736;28;20028;-77
2022/06/28 04:46:28;;;;;;;13.98;9.02;;;;;;;21.01;54.07;94181.44;5030556;28;20861;-77
2022/06/28 04:48:54;;;;;;;12.55;9.57;;;;;;;20.58;54.83;94198.28;5032109;28;20043;-77
2022/06/28 04:51:19;;;;;;;12.27;9.05;;;;;;;20.35;56.25;94190.25;5032361;28;20028;-77
2022/06/28 04:53:46;;;;;;;12.95;9.70;;;;;;;20.72;56.47;94186.88;5028958;28;20635;-78
2022/06/28 04:56:12;;;;;;;22.63;9.48;;;;;;;20.77;55.43;94191.94;5032170;28;20055;-77
2022/06/28 04:58:38;;;;;;;10.00;8.95;;;;;;;20.60;55.48;94166.25;5029623;28;20029;-78
2022/06/28 05:01:04;;;;;;;13.18;8.68;;;;;;;20.80;55.42;94166.88;5030541;28;20615;-78
2022/06/28 05:03:30;;;;;;;12.48;8.95;;;;;;;20.83;54.53;94196.63;5032042;28;20168;-77
2022/06/28 05:05:56;;;;;;;12.75;9.32;;;;;;;20.93;54.66;94195.22;5030916;28;20025;-75
2022/06/28 05:08:21;;;;;;;13.02;10.27;;;;;;;20.79;54.47;94176.13;5032573;28;20067;-77
2022/06/28 05:10:46;;;;;;;10.20;8.93;;;;;;;21.01;54.08;94181.44;5031431;28;20493;-77
2022/06/28 05:13:12;;;;;;;15.65;9.60;;;;;;;21.34;53.63;94188.72;5032173;28;20056;-77
2022/06/28 05:15:37;;;;;;;10.27;9.23;;;;;;;21.45;53.31;94184.22;5030896;28;20481;-77
2022/06/28 05:18:03;;;;;;;14.85;10.57;;;;;;;21.54;52.98;94175.78;5032603;28;20025;-77
2022/06/28 05:20:28;;;;;;;11.23;8.80;;;;;;;21.66;52.20;94182.84;5032463;28;20672;-77
2022/06/28 05:22:54;;;;;;;13.63;9.85;;;;;;;21.85;52.65;94191.50;5030973;28;20037;-77
2022/06/28 05:25:19;;;;;;;14.07;9.80;;;;;;;21.63;52.94;94167.34;5030924;28;20021;-78
2022/06/28 05:27:45;;;;;;;15.82;10.05;;;;;;;21.87;53.30;94188.44;5027202;28;20477;-77
2022/06/28 05:30:11;;;;;;;12.25;9.68;;;;;;;21.96;52.39;94175.34;5025958;28;20378;-78
2022/06/28 05:32:37;;;;;;;16.63;9.82;;;;;;;21.89;52.49;94178.03;5026200;28;20396;-78
2022/06/28 05:35:03;;;;;;;13.63;9.20;;;;;;;21.81;51.66;94192.63;5025703;28;20037;-77
2022/06/28 05:37:29;;;;;;;15.30;10.32;;;;;;;21.78;51.91;94193.41;5009915;28;20029;-78
2022/06/28 05:39:55;;;;;;;12.95;10.23;;;;;;;21.75;52.81;94204.97;4996242;28;20470;-78
2022/06/28 05:42:20;;;;;;;14.52;10.70;;;;;;;21.61;53.08;94197.50;5000313;28;20259;-77
2022/06/28 05:44:45;;;;;;;18.40;10.65;;;;;;;21.36;53.88;94197.22;4978800;28;20602;-78
2022/06/28 05:47:11;;;;;;;13.38;10.68;;;;;;;21.59;53.87;94197.09;4974514;28;20042;-77
2022/06/28 05:49:38;;;;;;;14.85;10.25;;;;;;;21.60;53.23;94178.94;4964515;28;20494;-77
2022/06/28 05:52:04;;;;;;;19.10;11.45;;;;;;;21.62;52.85;94184.75;4968925;28;20129;-77
2022/06/28 05:54:29;;;;;;;18.25;10.88;;;;;;;21.94;52.79;94182.31;4965600;28;20034;-76
2022/06/28 05:56:54;;;;;;;14.07;10.05;;;;;;;22.07;52.74;94195.16;4969713;28;20104;-77
2022/06/28 05:59:20;;;;;;;14.60;9.80;;;;;;;21.62;51.63;94185.53;4968176;28;20109;-78
2022/06/28 06:01:45;;;;;;;14.52;9.30;;;;;;;22.05;51.90;94211.00;4970356;28;20154;-76
2022/06/28 06:04:11;;;;;;;15.43;11.10;;;;;;;22.06;52.20;94206.38;4972142;28;20014;-78
2022/06/28 06:06:36;;;;;;;13.20;9.27;;;;;;;21.85;52.23;94207.00;4969012;28;20116;-76
2022/06/28 06:09:02;;;;;;;16.92;10.45;;;;;;;21.32;52.64;94182.91;4971400;28;20046;-76
2022/06/28 06:11:27;;;;;;;13.52;9.93;;;;;;;21.33;53.17;94214.22;4970200;28;20104;-75
2022/06/28 06:13:53;;;;;;;14.25;9.70;;;;;;;21.62;53.26;94214.50;4972491;28;20111;-75
2022/06/28 06:16:18;;;;;;;11.60;9.55;;;;;;;21.89;52.44;94191.56;4973584;28;20034;-77
2022/06/28 06:18:43;;;;;;;14.38;8.38;;;;;;;21.84;52.21;94183.78;4971346;28;20030;-76
2022/06/28 06:21:09;;;;;;;11.18;8.98;;;;;;;22.25;52.01;94187.94;4971881;28;20490;-76
2022/06/28 06:23:34;;;;;;;14.82;8.70;;;;;;;22.28;51.03;94184.50;4973733;28;20026;-75
2022/06/28 06:26:01;;;;;;;11.30;7.90;;;;;;;22.01;51.75;94187.75;4972637;28;20450;-76
2022/06/28 06:28:26;;;;;;;12.98;9.05;;;;;;;22.32;51.52;94191.88;4970311;28;20037;-76
2022/06/28 06:30:52;;;;;;;10.38;8.43;;;;;;;22.49;50.56;94202.78;4971530;28;20030;-76
2022/06/28 06:33:18;;;;;;;12.27;8.77;;;;;;;22.27;50.77;94174.81;4968660;28;20714;-76
2022/06/28 06:35:43;;;;;;;12.35;8.70;;;;;;;22.48;50.56;94185.00;4968087;28;20085;-76
2022/06/28 06:38:08;;;;;;;10.70;8.50;;;;;;;22.75;49.95;94177.38;4972006;28;20037;-76
2022/06/28 06:40:36;;;;;;;12.27;9.43;;;;;;;23.10;49.63;94193.81;4972319;28;20129;-77
2022/06/28 06:43:02;;;;;;;11.63;8.90;;;;;;;23.23;49.95;94179.88;4969993;28;20038;-77
2022/06/28 06:45:28;;;;;;;11.60;8.68;;;;;;;23.37;49.28;94169.03;4969337;28;20058;-76
2022/06/28 06:47:53;;;;;;;9.73;8.15;;;;;;;23.68;49.89;94179.19;4972754;28;20031;-76
2022/06/28 06:50:20;;;;;;;10.88;8.98;;;;;;;23.64;48.63;94156.69;4970992;28;20697;-76
2022/06/28 06:52:45;;;;;;;17.85;9.35;;;;;;;23.58;48.52;94174.53;4969635;28;20557;-76
2022/06/28 06:55:11;;;;;;;11.23;9.20;;;;;;;23.41;48.36;94156.28;4971227;28;20458;-77
2022/06/28 06:57:36;;;;;;;12.27;9.05;;;;;;;23.83;48.81;94175.31;4967900;28;20034;-77
2022/06/28 07:00:04;;;;;;;12.60;9.25;;;;;;;23.68;48.94;94140.41;4964156;28;20040;-77
2022/06/28 07:02:29;;;;;;;10.27;8.57;;;;;;;23.54;48.94;94157.47;4966528;28;20109;-76
2022/06/28 07:04:55;;;;;;;13.52;8.50;;;;;;;23.71;50.01;94148.53;4970609;28;20405;-76
2022/06/28 07:07:21;;;;;;;10.38;7.15;;;;;;;23.71;48.83;94128.78;4972454;28;20030;-77
2022/06/28 07:09:46;;;;;;;9.48;7.80;;;;;;;23.64;48.20;94156.69;4971748;28;20045;-76
2022/06/28 07:12:11;;;;;;;8.75;7.43;;;;;;;23.98;49.37;94174.16;4971924;28;20105;-76
2022/06/28 07:14:37;;;;;;;13.35;8.13;;;;;;;24.04;48.32;94168.31;4971264;28;20049;-76
2022/06/28 07:17:02;;;;;;;8.20;5.78;;;;;;;24.09;47.13;94171.44;4972460;28;20043;-76
2022/06/28 07:19:28;;;;;;;9.82;6.50;;;;;;;24.10;47.07;94145.78;4969450;28;20049;-77
2022/06/28 07:21:53;;;;;;;6.78;5.65;;;;;;;24.27;44.26;94145.00;4970229;28;20146;-77
2022/06/28 07:24:19;;;;;;;7.20;6.20;;;;;;;24.35;44.48;94124.00;4971512;28;20042;-76
2022/06/28 07:26:44;;;;;;;5.38;4.85;;;;;;;24.25;42.58;94168.31;4970193;28;20038;-76
2022/06/28 07:29:10;;;;;;;6.22;5.63;;;;;;;24.16;42.68;94162.50;4969794;28;20434;-77
2022/06/28 07:31:36;;;;;;;7.78;6.07;;;;;;;24.13;44.48;94166.78;4970107;28;20477;-76
2022/06/28 07:34:01;;;;;;;6.35;4.88;;;;;;;24.31;44.49;94164.03;4969410;28;20479;-76
2022/06/28 07:36:28;;;;;;;5.75;5.25;;;;;;;24.57;44.67;94162.78;4970442;28;20038;-76
2022/06/28 07:38:54;;;;;;;6.20;5.57;;;;;;;24.59;43.83;94150.34;4968201;28;20039;-76
2022/06/28 07:41:26;;;;;;;5.70;4.82;;;;;;;24.83;43.85;94176.69;4970045;28;20037;-76
2022/06/28 07:43:51;;;;;;;6.13;5.15;;;;;;;24.89;42.55;94163.47;4970303;28;20041;-76
2022/06/28 07:46:18;;;;;;;6.10;5.13;;;;;;;25.13;41.68;94178.91;4968824;28;20043;-76
2022/06/28 07:48:44;;;;;;;6.55;4.80;;;;;;;25.22;42.17;94176.50;4968151;28;20046;-76
2022/06/28 07:53:53;;;;;;;5.30;4.80;;;;;;;25.21;42.11;94171.47;4965668;28;20058;-77
2022/06/28 07:56:19;;;;;;;6.38;5.78;;;;;;;25.27;41.30;94183.50;4965272;28;20280;-78
2022/06/28 07:58:44;;;;;;;5.70;5.07;;;;;;;25.00;41.90;94153.31;4967958;28;20026;-76
2022/06/28 08:01:10;;;;;;;6.78;4.93;;;;;;;24.58;43.27;94162.41;4967299;28;20358;-76
2022/06/28 08:03:35;;;;;;;5.78;4.75;;;;;;;24.35;43.01;94162.84;4968927;28;20046;-76
2022/06/28 08:06:00;;;;;;;9.30;4.43;;;;;;;24.76;43.27;94171.31;4969405;28;20582;-76
2022/06/28 08:08:26;;;;;;;6.13;5.28;;;;;;;24.87;42.22;94138.63;4967809;28;20042;-76
2022/06/28 08:10:51;;;;;;;6.65;5.10;;;;;;;25.21;42.58;94166.81;4968868;28;20018;-76
2022/06/28 08:13:17;;;;;;;5.03;4.53;;;;;;;25.16;41.29;94144.69;4967327;28;20448;-76
2022/06/28 08:15:43;;;;;;;6.07;5.50;;;;;;;25.29;41.40;94153.94;4966915;28;20038;-77
2022/06/28 08:18:09;;;;;;;7.60;5.93;;;;;;;25.13;42.17;94140.03;4967158;28;20125;-77
2022/06/28 08:20:35;;;;;;;5.53;4.93;;;;;;;25.05;41.52;94143.97;4966207;28;20038;-76
2022/06/28 08:23:01;;;;;;;8.07;5.18;;;;;;;24.77;41.95;94139.44;4974951;28;20034;-77
2022/06/28 08:25:26;;;;;;;6.93;5.47;;;;;;;25.03;41.56;94124.56;4968382;28;20562;-77
2022/06/28 08:27:51;;;;;;;6.70;5.47;;;;;;;25.07;43.26;94147.84;4966225;28;20038;-77
2022/06/28 08:30:17;;;;;;;6.00;5.22;;;;;;;25.12;42.91;94136.53;4967212;28;20038;-76
2022/06/28 08:32:42;;;;;;;5.15;4.65;;;;;;;25.39;41.84;94158.56;4966873;28;20034;-76
2022/06/28 08:35:08;;;;;;;7.18;5.95;;;;;;;25.10;42.06;94152.50;4967181;28;20053;-76
2022/06/28 08:37:33;;;;;;;5.43;4.75;;;;;;;25.21;41.89;94147.00;4966738;28;20023;-76
2022/06/28 08:39:59;;;;;;;4.05;3.75;;;;;;;25.20;40.48;94148.16;4966152;28;20465;-76
2022/06/28 08:42:26;;;;;;;4.25;3.85;;;;;;;25.26;40.17;94150.06;4966861;28;20081;-76
2022/06/28 08:44:52;;;;;;;4.97;4.10;;;;;;;24.82;41.70;94158.84;4963577;28;20526;-76
2022/06/28 08:47:20;;;;;;;6.18;3.40;;;;;;;24.97;41.28;94139.75;4968578;28;20098;-76
2022/06/28 08:49:56;;;;;;;4.88;3.83;;;;;;;25.25;40.06;94159.41;4966362;28;20038;-76
2022/06/28 08:52:23;;;;;;;4.90;4.18;;;;;;;25.40;40.14;94165.56;4968908;28;20481;-76
2022/06/28 08:54:50;;;;;;;3.95;3.55;;;;;;;25.31;39.32;94145.41;4966755;28;20062;-77
2022/06/28 08:57:18;;;;;;;8.55;3.78;;;;;;;25.34;41.70;94150.03;4969618;28;20469;-77
2022/06/28 08:59:45;;;;;;;5.45;4.10;;;;;;;25.43;39.39;94147.63;4981537;28;20089;-76
2022/06/28 09:02:13;;;;;;;4.32;3.92;;;;;;;25.39;39.31;94155.84;4966867;28;20151;-76
2022/06/28 09:04:39;;;;;;;4.47;4.07;;;;;;;25.43;40.50;94167.47;4964772;28;20034;-77
2022/06/28 09:07:04;;;;;;;5.07;3.50;;;;;;;25.41;40.23;94155.44;4967320;28;20027;-76
2022/06/28 09:09:29;;;;;;;5.28;4.50;;;;;;;25.38;39.43;94157.00;4965965;28;20061;-77
2022/06/28 09:11:55;;;;;;;11.25;4.07;;;;;;;25.51;39.11;94170.94;4965381;28;20570;-77
2022/06/28 09:14:30;;;;;;;4.18;3.60;;;;;;;25.51;39.01;94155.38;4965937;28;20481;-77
2022/06/28 09:16:57;;;;;;;11.43;5.25;;;;;;;25.58;39.13;94160.75;4966755;28;20030;-76
2022/06/28 09:19:34;;;;;;;4.18;3.78;;;;;;;25.67;41.48;94152.91;4969260;28;20505;-76
2022/06/28 09:22:00;;;;;;;4.93;3.35;;;;;;;25.69;39.18;94166.13;4967989;28;20049;-76
2022/06/28 09:24:26;;;;;;;3.55;3.25;;;;;;;25.55;39.67;94123.44;4971418;28;20038;-76
2022/06/28 09:26:59;;;;;;;4.95;4.20;;;;;;;25.45;38.70;94118.84;4966361;28;20034;-76
2022/06/28 09:29:24;;;;;;;4.72;3.33;;;;;;;25.66;37.95;94145.16;4971993;28;20038;-76
2022/06/28 09:31:50;;;;;;;3.40;2.85;;;;;;;25.45;39.61;94129.75;4967815;28;20509;-76
2022/06/28 09:34:16;;;;;;;4.18;3.60;;;;;;;25.53;39.18;94144.06;4969468;28;20069;-78
2022/06/28 09:36:57;;;;;;;4.10;3.70;;;;;;;25.70;39.90;94156.78;4963535;28;20118;-76
2022/06/28 09:39:27;;;;;;;4.10;3.70;;;;;;;25.73;40.21;94136.13;4967340;28;20121;-77
2022/06/28 09:41:54;;;;;;;4.07;3.67;;;;;;;25.96;37.88;94149.97;4967510;28;20233;-76
2022/06/28 09:44:25;;;;;;;5.05;4.40;;;;;;;25.97;38.45;94152.31;4967733;28;20042;-75
2022/06/28 09:46:52;;;;;;;3.80;3.50;;;;;;;25.74;39.99;94145.84;4967457;28;20031;-76
2022/06/28 09:49:18;;;;;;;4.93;3.75;;;;;;;25.86;38.49;94148.84;4968095;28;20034;-76
2022/06/28 09:51:45;;;;;;;3.92;3.60;;;;;;;25.85;37.42;94141.09;4965435;28;20096;-77
2022/06/28 09:54:10;;;;;;;4.05;3.72;;;;;;;25.74;40.29;94140.41;4968920;28;20042;-76
2022/06/28 09:56:42;;;;;;;5.65;3.60;;;;;;;25.89;38.78;94142.66;4967580;28;20089;-78
2022/06/28 09:59:09;;;;;;;5.80;3.60;;;;;;;25.86;38.52;94143.41;4967149;28;20624;-77
2022/06/28 10:01:35;;;;;;;4.43;4.03;;;;;;;25.78;39.34;94136.47;4964783;28;20048;-76
2022/06/28 10:04:01;;;;;;;3.88;3.47;;;;;;;25.77;39.51;94134.94;4970062;28;20616;-78
2022/06/28 10:06:27;;;;;;;3.83;3.38;;;;;;;25.58;38.20;94113.69;4965392;28;20862;-79
2022/06/28 10:08:52;;;;;;;4.45;3.47;;;;;;;25.70;38.42;94133.06;4966579;28;20109;-79
2022/06/28 10:11:19;;;;;;;3.90;3.30;;;;;;;25.83;38.18;94136.06;4966856;28;20126;-78
2022/06/28 10:16:57;;;;;;;4.85;3.55;;;;;;;25.94;38.82;94136.00;4969784;28;20068;-78
2022/06/28 10:19:26;;;;;;;5.43;3.58;;;;;;;25.98;37.67;94112.19;4963053;28;20576;-77
2022/06/28 10:21:51;;;;;;;4.28;3.88;;;;;;;25.93;40.16;94131.72;4965725;28;20617;-78
2022/06/28 10:24:17;;;;;;;4.72;3.95;;;;;;;25.89;39.10;94103.72;4959329;28;20078;-78
2022/06/28 10:26:45;;;;;;;4.85;4.25;;;;;;;26.06;42.88;94117.19;4967776;28;20435;-77
2022/06/28 10:29:10;;;;;;;4.22;3.83;;;;;;;26.18;38.35;94105.00;4965945;28;20069;-78
2022/06/28 10:31:43;;;;;;;6.97;3.80;;;;;;;26.30;38.50;94101.00;4966497;28;20109;-77
2022/06/28 10:34:12;;;;;;;4.25;3.75;;;;;;;26.41;36.73;94105.13;4944912;28;20053;-78
2022/06/28 10:36:57;;;;;;;5.47;3.97;;;;;;;26.53;37.47;94121.00;4961021;28;20109;-76
2022/06/28 10:39:23;;;;;;;;;;;;;;;26.57;37.33;94122.91;4963913;28;20030;-77
2022/06/28 10:41:49;;;;;;;6.07;3.95;;;;;;;26.53;39.51;94118.28;4968923;28;19928;-77
2022/06/28 10:44:20;;;;;;;4.47;3.92;;;;;;;26.15;37.53;94066.88;4962306;28;20039;-77
2022/06/28 10:47:01;;;;;;;4.95;4.45;;;;;;;26.51;38.34;94107.00;4962098;28;20038;-78
2022/06/28 10:49:48;;;;;;;4.78;4.38;;;;;;;26.57;38.33;94101.09;4971881;28;20108;-78
2022/06/28 10:52:14;;;;;;;4.82;4.32;;;;;;;26.70;37.63;94107.53;4965273;28;20047;-79
2022/06/28 10:55:03;;;;;;;5.13;4.28;;;;;;;26.67;37.91;94108.38;4966327;28;20062;-78
2022/06/28 10:57:40;;;;;;;3.72;3.33;;;;;;;26.39;38.01;94099.31;4964391;28;20125;-78
2022/06/28 11:00:34;;;;;;;4.53;4.13;;;;;;;26.43;39.12;94105.50;4965512;28;20054;-78
2022/06/28 11:03:02;;;;;;;4.90;4.40;;;;;;;26.50;37.54;94071.94;4962234;28;20030;-76
2022/06/28 11:05:49;;;;;;;4.03;3.63;;;;;;;26.50;36.91;94072.72;4966704;28;20271;-76
2022/06/28 11:08:42;;;;;;;5.57;3.78;;;;;;;26.11;37.57;94061.44;4967112;28;20142;-76
2022/06/28 11:11:08;;;;;;;4.55;3.53;;;;;;;25.94;36.99;94054.25;4957330;28;20053;-78
2022/06/28 11:13:33;;;;;;;3.88;3.58;;;;;;;26.09;36.81;94074.72;4959893;28;20026;-75
2022/06/28 11:15:59;;;;;;;4.22;3.22;;;;;;;26.10;37.49;94068.09;4959388;28;20512;-78
2022/06/28 11:18:25;;;;;;;3.33;3.03;;;;;;;25.89;37.35;94071.03;4950247;28;20130;-78
2022/06/28 11:20:54;;;;;;;4.65;4.22;;;;;;;25.87;37.83;94070.63;4956372;28;20082;-76
2022/06/28 11:23:23;;;;;;;4.22;3.42;;;;;;;25.83;38.62;94078.84;4960646;28;20410;-76
2022/06/28 11:28:51;;;;;;;3.83;3.53;;;;;;;26.21;39.12;94081.59;4968363;28;20080;-78
2022/06/28 11:31:17;;;;;;;4.53;3.78;;;;;;;26.41;39.92;94087.97;4966505;28;20137;-76
2022/06/28 11:33:42;;;;;;;4.30;3.47;;;;;;;26.37;37.64;94058.03;4969894;28;20060;-77
2022/06/28 11:36:07;;;;;;;3.40;3.10;;;;;;;26.61;36.66;94080.75;4968281;28;20549;-77
2022/06/28 11:38:33;;;;;;;3.65;3.35;;;;;;;26.61;35.64;94064.41;4969794;28;20038;-76
2022/06/28 11:40:58;;;;;;;3.15;2.95;;;;;;;26.74;36.82;94083.75;4969916;28;20114;-76
2022/06/28 11:43:25;;;;;;;3.70;3.40;;;;;;;26.44;36.62;94073.56;4970115;28;20022;-76
2022/06/28 11:45:52;;;;;;;4.95;3.40;;;;;;;26.55;37.26;94091.34;4965575;28;20507;-76
2022/06/28 11:48:29;;;;;;;3.47;3.17;;;;;;;26.51;36.55;94071.53;4966620;28;20065;-77
2022/06/28 11:50:59;;;;;;;3.58;3.03;;;;;;;26.72;36.81;94089.59;4967541;28;20089;-76
2022/06/28 11:53:27;;;;;;;6.13;3.92;;;;;;;26.87;36.83;94090.19;4962877;28;20046;-76
2022/06/28 11:55:55;;;;;;;4.28;3.72;;;;;;;26.87;35.90;94084.72;4970088;28;20170;-76
2022/06/28 11:58:25;;;;;;;4.43;4.03;;;;;;;26.93;38.75;94096.72;4968706;28;20034;-75
2022/06/28 12:01:03;;;;;;;3.88;3.53;;;;;;;26.94;35.79;94103.72;4963295;28;20699;-76
2022/06/28 12:03:28;;;;;;;4.38;3.97;;;;;;;26.76;38.04;94084.09;4982423;28;20043;-78
2022/06/28 12:06:00;;;;;;;4.57;3.47;;;;;;;27.00;37.68;94104.81;4967763;28;20039;-76
2022/06/28 12:08:44;;;;;;;5.82;3.42;;;;;;;27.05;35.82;94104.38;4970046;28;20599;-77